sensor_id;sensor_type;location;lat;lon;timestamp;temperature;humidity
15143;DHT22;7672;50.834;6.286;2023-06-26T00:01:44;24.40;99.90
15143;DHT22;7672;50.834;6.286;2023-06-26T00:04:11;24.40;99.90
15143;DHT22;7672;50.834;6.286;2023-06-26T00:06:41;24.40;99.90
15143;DHT22;7672;50.834;6.286;2023-06-26T00:09:09;24.40;99.90
15143;DHT22;7672;50.834;6.286;2023-06-26T00:11:36;24.30;99.90
15143;DHT22;7672;50.834;6.286;2023-06-26T00:14:03;24.20;99.90
15143;DHT22;7672;50.834;6.286;2023-06-26T00:16:31;24.20;99.90
15143;DHT22;7672;50.834;6.286;2023-06-26T00:18:59;24.20;99.90
15143;DHT22;7672;50.834;6.286;2023-06-26T00:21:26;24.20;99.90
15143;DHT22;7672;50.834;6.286;2023-06-26T00:23:54;24.20;99.90
15143;DHT22;7672;50.834;6.286;2023-06-26T00:26:21;24.00;99.90
15143;DHT22;7672;50.834;6.286;2023-06-26T00:28:48;24.10;99.90
15143;DHT22;7672;50.834;6.286;2023-06-26T00:31:15;24.00;99.90
15143;DHT22;7672;50.834;6.286;2023-06-26T00:33:42;24.00;99.90
15143;DHT22;7672;50.834;6.286;2023-06-26T00:36:10;23.90;99.90
15143;DHT22;7672;50.834;6.286;2023-06-26T00:38:37;23.90;99.90
15143;DHT22;7672;50.834;6.286;2023-06-26T00:41:05;23.90;99.90
15143;DHT22;7672;50.834;6.286;2023-06-26T00:43:39;23.90;99.90
15143;DHT22;7672;50.834;6.286;2023-06-26T00:46:12;23.80;99.90
15143;DHT22;7672;50.834;6.286;2023-06-26T00:48:42;23.80;99.90
15143;DHT22;7672;50.834;6.286;2023-06-26T00:51:12;23.70;99.90
15143;DHT22;7672;50.834;6.286;2023-06-26T00:53:40;24.00;99.90
15143;DHT22;7672;50.834;6.286;2023-06-26T00:56:08;23.70;99.90
15143;DHT22;7672;50.834;6.286;2023-06-26T00:58:36;23.80;99.90
15143;DHT22;7672;50.834;6.286;2023-06-26T01:01:03;23.80;99.90
15143;DHT22;7672;50.834;6.286;2023-06-26T01:03:32;23.90;99.90
15143;DHT22;7672;50.834;6.286;2023-06-26T01:06:00;23.80;99.90
15143;DHT22;7672;50.834;6.286;2023-06-26T01:08:29;23.70;99.90
15143;DHT22;7672;50.834;6.286;2023-06-26T01:10:56;23.70;99.90
15143;DHT22;7672;50.834;6.286;2023-06-26T01:13:24;23.80;99.90
15143;DHT22;7672;50.834;6.286;2023-06-26T01:15:51;23.60;99.90
15143;DHT22;7672;50.834;6.286;2023-06-26T01:18:19;23.80;99.90
15143;DHT22;7672;50.834;6.286;2023-06-26T01:20:47;23.80;99.90
15143;DHT22;7672;50.834;6.286;2023-06-26T01:23:24;23.80;99.90
15143;DHT22;7672;50.834;6.286;2023-06-26T01:26:13;23.90;99.90
15143;DHT22;7672;50.834;6.286;2023-06-26T01:28:43;23.90;99.90
15143;DHT22;7672;50.834;6.286;2023-06-26T01:31:12;23.90;99.90
15143;DHT22;7672;50.834;6.286;2023-06-26T01:33:41;23.90;99.90
15143;DHT22;7672;50.834;6.286;2023-06-26T01:36:09;23.90;99.90
15143;DHT22;7672;50.834;6.286;2023-06-26T01:38:37;24.00;99.90
15143;DHT22;7672;50.834;6.286;2023-06-26T01:41:05;24.00;99.90
15143;DHT22;7672;50.834;6.286;2023-06-26T01:47:01;24.00;99.90
15143;DHT22;7672;50.834;6.286;2023-06-26T01:55:02;24.00;99.90
15143;DHT22;7672;50.834;6.286;2023-06-26T01:57:33;23.90;99.90
15143;DHT22;7672;50.834;6.286;2023-06-26T02:00:02;24.00;99.90
15143;DHT22;7672;50.834;6.286;2023-06-26T02:02:40;24.00;99.90
15143;DHT22;7672;50.834;6.286;2023-06-26T02:05:13;24.00;99.90
15143;DHT22;7672;50.834;6.286;2023-06-26T02:07:41;24.00;99.90
15143;DHT22;7672;50.834;6.286;2023-06-26T02:10:09;24.00;99.90
15143;DHT22;7672;50.834;6.286;2023-06-26T02:12:37;24.00;99.90
15143;DHT22;7672;50.834;6.286;2023-06-26T02:15:05;24.00;99.90
15143;DHT22;7672;50.834;6.286;2023-06-26T02:17:33;24.10;99.90
15143;DHT22;7672;50.834;6.286;2023-06-26T02:20:00;24.10;99.90
15143;DHT22;7672;50.834;6.286;2023-06-26T02:22:29;24.10;99.90
15143;DHT22;7672;50.834;6.286;2023-06-26T02:24:56;24.10;99.90
15143;DHT22;7672;50.834;6.286;2023-06-26T02:27:25;24.10;99.90
15143;DHT22;7672;50.834;6.286;2023-06-26T02:29:53;24.10;99.90
15143;DHT22;7672;50.834;6.286;2023-06-26T02:32:20;24.20;99.90
15143;DHT22;7672;50.834;6.286;2023-06-26T02:34:49;24.20;99.90
15143;DHT22;7672;50.834;6.286;2023-06-26T02:37:19;24.10;99.90
15143;DHT22;7672;50.834;6.286;2023-06-26T02:39:47;24.20;99.90
15143;DHT22;7672;50.834;6.286;2023-06-26T02:42:14;24.20;99.90
15143;DHT22;7672;50.834;6.286;2023-06-26T02:44:41;24.20;99.90
15143;DHT22;7672;50.834;6.286;2023-06-26T02:47:11;24.20;99.90
15143;DHT22;7672;50.834;6.286;2023-06-26T02:49:41;24.20;99.90
15143;DHT22;7672;50.834;6.286;2023-06-26T02:52:08;24.20;99.90
15143;DHT22;7672;50.834;6.286;2023-06-26T02:54:36;24.20;99.90
15143;DHT22;7672;50.834;6.286;2023-06-26T02:57:04;24.10;99.90
15143;DHT22;7672;50.834;6.286;2023-06-26T02:59:33;24.10;99.90
15143;DHT22;7672;50.834;6.286;2023-06-26T03:02:01;24.10;99.90
15143;DHT22;7672;50.834;6.286;2023-06-26T03:04:33;24.10;99.90
15143;DHT22;7672;50.834;6.286;2023-06-26T03:07:04;24.10;99.90
15143;DHT22;7672;50.834;6.286;2023-06-26T03:09:32;24.10;99.90
15143;DHT22;7672;50.834;6.286;2023-06-26T03:12:00;24.10;99.90
15143;DHT22;7672;50.834;6.286;2023-06-26T03:14:27;24.10;99.90
15143;DHT22;7672;50.834;6.286;2023-06-26T03:16:55;24.00;99.90
15143;DHT22;7672;50.834;6.286;2023-06-26T03:19:26;24.00;99.90
15143;DHT22;7672;50.834;6.286;2023-06-26T03:22:12;24.00;99.90
15143;DHT22;7672;50.834;6.286;2023-06-26T03:24:39;24.00;99.90
15143;DHT22;7672;50.834;6.286;2023-06-26T03:27:06;23.90;99.90
15143;DHT22;7672;50.834;6.286;2023-06-26T03:29:36;23.90;99.90
15143;DHT22;7672;50.834;6.286;2023-06-26T03:32:04;23.90;99.90
15143;DHT22;7672;50.834;6.286;2023-06-26T03:34:31;23.80;99.90
15143;DHT22;7672;50.834;6.286;2023-06-26T03:36:59;23.80;99.90
15143;DHT22;7672;50.834;6.286;2023-06-26T03:39:26;23.80;99.90
15143;DHT22;7672;50.834;6.286;2023-06-26T03:41:53;23.80;99.90
15143;DHT22;7672;50.834;6.286;2023-06-26T03:44:22;23.70;99.90
15143;DHT22;7672;50.834;6.286;2023-06-26T03:46:49;23.80;99.90
15143;DHT22;7672;50.834;6.286;2023-06-26T03:49:17;23.70;99.90
15143;DHT22;7672;50.834;6.286;2023-06-26T03:51:45;23.70;99.90
15143;DHT22;7672;50.834;6.286;2023-06-26T03:54:13;23.60;99.90
15143;DHT22;7672;50.834;6.286;2023-06-26T03:56:42;23.60;99.90
15143;DHT22;7672;50.834;6.286;2023-06-26T03:59:10;23.60;99.90
15143;DHT22;7672;50.834;6.286;2023-06-26T04:01:38;23.60;99.90
15143;DHT22;7672;50.834;6.286;2023-06-26T04:04:05;23.60;99.90
15143;DHT22;7672;50.834;6.286;2023-06-26T04:06:32;23.60;99.90
15143;DHT22;7672;50.834;6.286;2023-06-26T04:09:00;23.60;99.90
15143;DHT22;7672;50.834;6.286;2023-06-26T04:11:27;23.60;99.90
15143;DHT22;7672;50.834;6.286;2023-06-26T04:13:55;23.60;99.90
15143;DHT22;7672;50.834;6.286;2023-06-26T04:16:23;23.60;99.90
15143;DHT22;7672;50.834;6.286;2023-06-26T04:18:52;23.60;99.90
15143;DHT22;7672;50.834;6.286;2023-06-26T04:21:20;23.50;99.90
15143;DHT22;7672;50.834;6.286;2023-06-26T04:23:47;23.70;99.90
15143;DHT22;7672;50.834;6.286;2023-06-26T04:26:14;23.50;99.90
15143;DHT22;7672;50.834;6.286;2023-06-26T04:28:42;23.50;99.90
15143;DHT22;7672;50.834;6.286;2023-06-26T04:31:10;23.60;99.90
15143;DHT22;7672;50.834;6.286;2023-06-26T04:33:37;23.50;99.90
15143;DHT22;7672;50.834;6.286;2023-06-26T04:36:09;23.60;99.90
15143;DHT22;7672;50.834;6.286;2023-06-26T04:38:36;23.60;99.90
15143;DHT22;7672;50.834;6.286;2023-06-26T04:41:03;23.50;99.90
15143;DHT22;7672;50.834;6.286;2023-06-26T04:43:30;23.60;99.90
15143;DHT22;7672;50.834;6.286;2023-06-26T04:45:58;23.50;99.90
15143;DHT22;7672;50.834;6.286;2023-06-26T04:48:25;23.60;99.90
15143;DHT22;7672;50.834;6.286;2023-06-26T04:50:55;23.60;99.90
15143;DHT22;7672;50.834;6.286;2023-06-26T04:53:23;23.60;99.90
15143;DHT22;7672;50.834;6.286;2023-06-26T04:55:53;23.60;99.90
15143;DHT22;7672;50.834;6.286;2023-06-26T04:58:20;23.70;99.90
15143;DHT22;7672;50.834;6.286;2023-06-26T05:00:47;23.70;99.90
15143;DHT22;7672;50.834;6.286;2023-06-26T05:03:16;23.80;99.90
15143;DHT22;7672;50.834;6.286;2023-06-26T05:05:45;23.90;99.90
15143;DHT22;7672;50.834;6.286;2023-06-26T05:08:21;24.00;99.90
15143;DHT22;7672;50.834;6.286;2023-06-26T05:10:50;24.10;99.90
15143;DHT22;7672;50.834;6.286;2023-06-26T05:13:17;24.30;99.90
15143;DHT22;7672;50.834;6.286;2023-06-26T05:15:46;24.30;99.90
15143;DHT22;7672;50.834;6.286;2023-06-26T05:18:14;24.40;99.90
15143;DHT22;7672;50.834;6.286;2023-06-26T05:20:41;24.50;99.90
15143;DHT22;7672;50.834;6.286;2023-06-26T05:23:11;24.60;99.90
15143;DHT22;7672;50.834;6.286;2023-06-26T05:25:40;24.70;99.90
15143;DHT22;7672;50.834;6.286;2023-06-26T05:28:08;24.80;99.90
15143;DHT22;7672;50.834;6.286;2023-06-26T05:30:37;24.90;99.90
15143;DHT22;7672;50.834;6.286;2023-06-26T05:33:05;25.00;99.90
15143;DHT22;7672;50.834;6.286;2023-06-26T05:35:36;25.00;99.90
15143;DHT22;7672;50.834;6.286;2023-06-26T05:38:04;25.20;99.90
15143;DHT22;7672;50.834;6.286;2023-06-26T05:40:32;25.20;99.90
15143;DHT22;7672;50.834;6.286;2023-06-26T05:43:01;25.40;99.90
15143;DHT22;7672;50.834;6.286;2023-06-26T05:45:28;25.50;99.90
15143;DHT22;7672;50.834;6.286;2023-06-26T05:47:55;25.60;99.90
15143;DHT22;7672;50.834;6.286;2023-06-26T05:50:23;25.60;99.90
15143;DHT22;7672;50.834;6.286;2023-06-26T05:52:51;25.70;99.90
15143;DHT22;7672;50.834;6.286;2023-06-26T05:55:19;25.70;99.90
15143;DHT22;7672;50.834;6.286;2023-06-26T05:57:47;25.80;99.90
15143;DHT22;7672;50.834;6.286;2023-06-26T06:00:16;25.90;99.90
15143;DHT22;7672;50.834;6.286;2023-06-26T06:02:45;25.90;99.90
15143;DHT22;7672;50.834;6.286;2023-06-26T06:05:12;26.00;99.90
15143;DHT22;7672;50.834;6.286;2023-06-26T06:07:39;26.00;99.90
15143;DHT22;7672;50.834;6.286;2023-06-26T06:10:07;26.10;99.90
15143;DHT22;7672;50.834;6.286;2023-06-26T06:12:34;26.20;99.90
15143;DHT22;7672;50.834;6.286;2023-06-26T06:15:01;26.30;99.90
15143;DHT22;7672;50.834;6.286;2023-06-26T06:17:29;26.40;99.90
15143;DHT22;7672;50.834;6.286;2023-06-26T06:19:57;26.50;99.90
15143;DHT22;7672;50.834;6.286;2023-06-26T06:22:24;26.60;99.90
15143;DHT22;7672;50.834;6.286;2023-06-26T06:24:51;26.70;99.90
15143;DHT22;7672;50.834;6.286;2023-06-26T06:27:19;26.90;99.90
15143;DHT22;7672;50.834;6.286;2023-06-26T06:29:46;27.00;99.90
15143;DHT22;7672;50.834;6.286;2023-06-26T06:32:13;27.20;99.90
15143;DHT22;7672;50.834;6.286;2023-06-26T06:34:40;27.30;99.90
15143;DHT22;7672;50.834;6.286;2023-06-26T06:37:07;27.50;99.90
15143;DHT22;7672;50.834;6.286;2023-06-26T06:39:34;27.60;99.90
15143;DHT22;7672;50.834;6.286;2023-06-26T06:42:01;27.60;99.90
15143;DHT22;7672;50.834;6.286;2023-06-26T06:44:29;27.80;99.90
15143;DHT22;7672;50.834;6.286;2023-06-26T06:46:57;27.80;99.90
15143;DHT22;7672;50.834;6.286;2023-06-26T06:49:24;27.80;99.90
15143;DHT22;7672;50.834;6.286;2023-06-26T06:51:52;27.80;99.90
15143;DHT22;7672;50.834;6.286;2023-06-26T06:54:20;27.80;99.90
15143;DHT22;7672;50.834;6.286;2023-06-26T06:56:48;27.80;99.90
15143;DHT22;7672;50.834;6.286;2023-06-26T06:59:15;27.70;99.90
15143;DHT22;7672;50.834;6.286;2023-06-26T07:01:42;27.70;99.90
15143;DHT22;7672;50.834;6.286;2023-06-26T07:04:09;27.70;99.90
15143;DHT22;7672;50.834;6.286;2023-06-26T07:06:37;27.60;99.90
15143;DHT22;7672;50.834;6.286;2023-06-26T07:09:04;27.70;99.90
15143;DHT22;7672;50.834;6.286;2023-06-26T07:11:32;27.80;99.90
15143;DHT22;7672;50.834;6.286;2023-06-26T07:13:59;27.90;99.90
15143;DHT22;7672;50.834;6.286;2023-06-26T07:16:26;28.00;99.90
15143;DHT22;7672;50.834;6.286;2023-06-26T07:18:54;28.10;99.90
15143;DHT22;7672;50.834;6.286;2023-06-26T07:21:21;28.30;99.90
15143;DHT22;7672;50.834;6.286;2023-06-26T07:23:52;28.40;99.90
15143;DHT22;7672;50.834;6.286;2023-06-26T07:26:19;28.60;99.90
15143;DHT22;7672;50.834;6.286;2023-06-26T07:29:06;28.80;99.90
15143;DHT22;7672;50.834;6.286;2023-06-26T07:31:33;29.10;99.90
15143;DHT22;7672;50.834;6.286;2023-06-26T07:34:01;29.30;99.90
15143;DHT22;7672;50.834;6.286;2023-06-26T07:36:28;29.60;99.90
15143;DHT22;7672;50.834;6.286;2023-06-26T07:38:55;29.80;99.90
15143;DHT22;7672;50.834;6.286;2023-06-26T07:41:22;30.10;99.90
15143;DHT22;7672;50.834;6.286;2023-06-26T07:43:49;30.40;99.90
15143;DHT22;7672;50.834;6.286;2023-06-26T07:46:16;30.60;99.90
15143;DHT22;7672;50.834;6.286;2023-06-26T07:48:43;30.90;99.90
15143;DHT22;7672;50.834;6.286;2023-06-26T07:51:10;31.30;99.90
15143;DHT22;7672;50.834;6.286;2023-06-26T07:53:38;31.60;99.90
15143;DHT22;7672;50.834;6.286;2023-06-26T07:56:05;31.90;99.90
15143;DHT22;7672;50.834;6.286;2023-06-26T07:58:33;32.20;99.90
15143;DHT22;7672;50.834;6.286;2023-06-26T08:01:00;32.30;99.90
15143;DHT22;7672;50.834;6.286;2023-06-26T08:03:27;32.50;99.90
15143;DHT22;7672;50.834;6.286;2023-06-26T08:06:01;32.80;99.90
15143;DHT22;7672;50.834;6.286;2023-06-26T08:08:30;33.10;99.90
15143;DHT22;7672;50.834;6.286;2023-06-26T08:10:58;33.40;98.90
15143;DHT22;7672;50.834;6.286;2023-06-26T08:13:25;33.70;98.30
15143;DHT22;7672;50.834;6.286;2023-06-26T08:15:52;34.00;97.20
15143;DHT22;7672;50.834;6.286;2023-06-26T08:18:19;34.40;96.60
15143;DHT22;7672;50.834;6.286;2023-06-26T08:20:47;34.90;95.90
15143;DHT22;7672;50.834;6.286;2023-06-26T08:23:14;35.30;94.50
15143;DHT22;7672;50.834;6.286;2023-06-26T08:25:41;35.70;94.10
15143;DHT22;7672;50.834;6.286;2023-06-26T08:28:08;36.00;92.80
15143;DHT22;7672;50.834;6.286;2023-06-26T08:30:35;36.40;92.00
15143;DHT22;7672;50.834;6.286;2023-06-26T08:33:03;36.60;91.20
15143;DHT22;7672;50.834;6.286;2023-06-26T08:35:30;37.00;90.30
15143;DHT22;7672;50.834;6.286;2023-06-26T08:37:58;37.40;90.20
15143;DHT22;7672;50.834;6.286;2023-06-26T08:40:25;37.80;86.50
15143;DHT22;7672;50.834;6.286;2023-06-26T08:42:53;38.10;85.50
15143;DHT22;7672;50.834;6.286;2023-06-26T08:45:21;38.50;84.40
15143;DHT22;7672;50.834;6.286;2023-06-26T08:47:51;38.70;82.80
15143;DHT22;7672;50.834;6.286;2023-06-26T08:50:22;39.00;80.00
15143;DHT22;7672;50.834;6.286;2023-06-26T08:52:59;39.10;80.00
15143;DHT22;7672;50.834;6.286;2023-06-26T08:55:35;39.10;79.10
15143;DHT22;7672;50.834;6.286;2023-06-26T08:58:05;39.20;78.60
15143;DHT22;7672;50.834;6.286;2023-06-26T09:00:33;39.30;79.30
15143;DHT22;7672;50.834;6.286;2023-06-26T09:03:02;39.40;77.60
15143;DHT22;7672;50.834;6.286;2023-06-26T09:05:30;39.60;77.50
15143;DHT22;7672;50.834;6.286;2023-06-26T09:08:02;39.70;75.30
15143;DHT22;7672;50.834;6.286;2023-06-26T09:10:31;39.80;73.70
15143;DHT22;7672;50.834;6.286;2023-06-26T09:12:58;39.90;73.00
15143;DHT22;7672;50.834;6.286;2023-06-26T09:15:36;39.80;73.10
15143;DHT22;7672;50.834;6.286;2023-06-26T09:18:09;39.70;71.60
15143;DHT22;7672;50.834;6.286;2023-06-26T09:20:37;39.50;72.10
15143;DHT22;7672;50.834;6.286;2023-06-26T09:23:05;39.30;71.20
15143;DHT22;7672;50.834;6.286;2023-06-26T09:25:33;39.10;71.70
15143;DHT22;7672;50.834;6.286;2023-06-26T09:28:00;38.80;72.00
15143;DHT22;7672;50.834;6.286;2023-06-26T09:30:27;38.60;72.40
15143;DHT22;7672;50.834;6.286;2023-06-26T09:32:54;38.50;72.50
15143;DHT22;7672;50.834;6.286;2023-06-26T09:35:22;38.30;72.70
15143;DHT22;7672;50.834;6.286;2023-06-26T09:37:49;38.50;72.90
15143;DHT22;7672;50.834;6.286;2023-06-26T09:40:16;38.50;72.10
15143;DHT22;7672;50.834;6.286;2023-06-26T09:42:44;38.60;71.20
15143;DHT22;7672;50.834;6.286;2023-06-26T09:45:18;38.70;70.50
15143;DHT22;7672;50.834;6.286;2023-06-26T09:47:46;38.80;71.70
15143;DHT22;7672;50.834;6.286;2023-06-26T09:50:23;38.80;70.00
15143;DHT22;7672;50.834;6.286;2023-06-26T09:52:52;38.70;69.80
15143;DHT22;7672;50.834;6.286;2023-06-26T09:55:20;38.60;70.00
15143;DHT22;7672;50.834;6.286;2023-06-26T09:57:50;38.50;70.00
15143;DHT22;7672;50.834;6.286;2023-06-26T10:00:19;38.50;70.70
15143;DHT22;7672;50.834;6.286;2023-06-26T10:02:46;38.50;70.80
15143;DHT22;7672;50.834;6.286;2023-06-26T10:05:14;38.50;71.00
15143;DHT22;7672;50.834;6.286;2023-06-26T10:07:41;38.40;69.40
15143;DHT22;7672;50.834;6.286;2023-06-26T10:10:09;38.30;69.50
15143;DHT22;7672;50.834;6.286;2023-06-26T10:12:37;38.10;69.60
15143;DHT22;7672;50.834;6.286;2023-06-26T10:15:06;38.00;69.10
15143;DHT22;7672;50.834;6.286;2023-06-26T10:17:41;37.80;70.20
15143;DHT22;7672;50.834;6.286;2023-06-26T10:20:09;37.70;69.80
15143;DHT22;7672;50.834;6.286;2023-06-26T10:22:45;37.60;69.00
15143;DHT22;7672;50.834;6.286;2023-06-26T10:25:18;37.50;69.20
15143;DHT22;7672;50.834;6.286;2023-06-26T10:27:50;37.30;69.80
15143;DHT22;7672;50.834;6.286;2023-06-26T10:30:26;37.30;70.40
15143;DHT22;7672;50.834;6.286;2023-06-26T10:32:56;37.30;69.00
15143;DHT22;7672;50.834;6.286;2023-06-26T10:35:24;37.30;69.70
15143;DHT22;7672;50.834;6.286;2023-06-26T10:37:52;37.30;69.60
15143;DHT22;7672;50.834;6.286;2023-06-26T10:40:41;37.40;69.80
15143;DHT22;7672;50.834;6.286;2023-06-26T10:43:13;37.50;69.20
15143;DHT22;7672;50.834;6.286;2023-06-26T10:45:54;37.60;69.30
15143;DHT22;7672;50.834;6.286;2023-06-26T10:48:22;37.70;69.10
15143;DHT22;7672;50.834;6.286;2023-06-26T10:50:50;37.80;68.90
15143;DHT22;7672;50.834;6.286;2023-06-26T11:01:15;38.20;67.10
15143;DHT22;7672;50.834;6.286;2023-06-26T11:04:06;38.30;66.20
15143;DHT22;7672;50.834;6.286;2023-06-26T11:06:35;38.40;66.90
15143;DHT22;7672;50.834;6.286;2023-06-26T11:14:23;38.30;65.10
15143;DHT22;7672;50.834;6.286;2023-06-26T11:16:51;38.20;65.00
15143;DHT22;7672;50.834;6.286;2023-06-26T11:19:19;38.20;66.20
15143;DHT22;7672;50.834;6.286;2023-06-26T11:21:47;38.10;64.30
15143;DHT22;7672;50.834;6.286;2023-06-26T11:24:14;38.10;65.30
15143;DHT22;7672;50.834;6.286;2023-06-26T11:26:44;38.00;66.30
15143;DHT22;7672;50.834;6.286;2023-06-26T11:29:12;37.90;65.90
15143;DHT22;7672;50.834;6.286;2023-06-26T11:31:41;37.90;65.70
15143;DHT22;7672;50.834;6.286;2023-06-26T11:34:10;37.90;65.20
15143;DHT22;7672;50.834;6.286;2023-06-26T11:36:41;37.70;65.60
15143;DHT22;7672;50.834;6.286;2023-06-26T11:39:10;37.60;64.80
15143;DHT22;7672;50.834;6.286;2023-06-26T11:41:39;37.40;64.30
15143;DHT22;7672;50.834;6.286;2023-06-26T11:44:08;37.20;63.90
15143;DHT22;7672;50.834;6.286;2023-06-26T11:46:37;37.00;64.70
15143;DHT22;7672;50.834;6.286;2023-06-26T11:49:06;36.90;65.30
15143;DHT22;7672;50.834;6.286;2023-06-26T11:51:35;36.70;65.40
15143;DHT22;7672;50.834;6.286;2023-06-26T11:54:05;36.60;65.00
15143;DHT22;7672;50.834;6.286;2023-06-26T11:56:32;36.50;65.20
15143;DHT22;7672;50.834;6.286;2023-06-26T11:59:07;36.30;65.60
15143;DHT22;7672;50.834;6.286;2023-06-26T12:01:41;36.30;66.00
15143;DHT22;7672;50.834;6.286;2023-06-26T12:04:14;36.20;65.20
15143;DHT22;7672;50.834;6.286;2023-06-26T12:06:47;36.00;64.90
15143;DHT22;7672;50.834;6.286;2023-06-26T12:09:18;35.90;64.10
15143;DHT22;7672;50.834;6.286;2023-06-26T12:11:48;35.80;64.90
15143;DHT22;7672;50.834;6.286;2023-06-26T12:14:20;35.60;65.20
15143;DHT22;7672;50.834;6.286;2023-06-26T12:16:49;35.50;65.60
15143;DHT22;7672;50.834;6.286;2023-06-26T12:19:17;35.40;65.30
15143;DHT22;7672;50.834;6.286;2023-06-26T12:21:46;35.30;65.40
15143;DHT22;7672;50.834;6.286;2023-06-26T12:24:19;35.10;64.20
15143;DHT22;7672;50.834;6.286;2023-06-26T12:26:50;35.00;65.40
15143;DHT22;7672;50.834;6.286;2023-06-26T12:29:21;34.90;65.40
15143;DHT22;7672;50.834;6.286;2023-06-26T12:31:52;34.70;64.90
15143;DHT22;7672;50.834;6.286;2023-06-26T12:34:26;34.70;64.30
15143;DHT22;7672;50.834;6.286;2023-06-26T12:37:02;34.50;65.90
15143;DHT22;7672;50.834;6.286;2023-06-26T12:42:18;34.00;66.20
15143;DHT22;7672;50.834;6.286;2023-06-26T12:44:47;33.80;66.50
15143;DHT22;7672;50.834;6.286;2023-06-26T12:47:15;33.70;65.90
15143;DHT22;7672;50.834;6.286;2023-06-26T12:49:45;33.50;66.00
15143;DHT22;7672;50.834;6.286;2023-06-26T12:52:16;33.30;66.10
15143;DHT22;7672;50.834;6.286;2023-06-26T12:54:51;33.20;66.50
15143;DHT22;7672;50.834;6.286;2023-06-26T12:57:19;33.10;67.20
15143;DHT22;7672;50.834;6.286;2023-06-26T12:59:46;33.00;67.30
15143;DHT22;7672;50.834;6.286;2023-06-26T13:02:14;32.90;66.90
15143;DHT22;7672;50.834;6.286;2023-06-26T13:04:41;32.80;65.90
15143;DHT22;7672;50.834;6.286;2023-06-26T13:07:11;32.70;66.30
15143;DHT22;7672;50.834;6.286;2023-06-26T13:09:39;32.50;67.00
15143;DHT22;7672;50.834;6.286;2023-06-26T13:12:08;32.40;67.10
15143;DHT22;7672;50.834;6.286;2023-06-26T13:14:35;32.30;66.70
15143;DHT22;7672;50.834;6.286;2023-06-26T13:17:03;32.20;67.50
15143;DHT22;7672;50.834;6.286;2023-06-26T13:19:33;32.10;66.80
15143;DHT22;7672;50.834;6.286;2023-06-26T13:22:00;32.00;67.20
15143;DHT22;7672;50.834;6.286;2023-06-26T13:24:27;32.00;68.20
15143;DHT22;7672;50.834;6.286;2023-06-26T13:26:54;31.90;68.20
15143;DHT22;7672;50.834;6.286;2023-06-26T13:29:22;31.90;68.80
15143;DHT22;7672;50.834;6.286;2023-06-26T13:31:49;31.80;67.30
15143;DHT22;7672;50.834;6.286;2023-06-26T13:34:21;31.80;67.80
15143;DHT22;7672;50.834;6.286;2023-06-26T13:36:50;31.80;68.30
15143;DHT22;7672;50.834;6.286;2023-06-26T13:39:17;31.80;69.10
15143;DHT22;7672;50.834;6.286;2023-06-26T13:41:45;31.80;69.30
15143;DHT22;7672;50.834;6.286;2023-06-26T13:44:13;31.70;70.30
15143;DHT22;7672;50.834;6.286;2023-06-26T13:46:47;31.80;69.40
15143;DHT22;7672;50.834;6.286;2023-06-26T13:49:14;31.80;68.10
15143;DHT22;7672;50.834;6.286;2023-06-26T13:51:41;31.70;67.40
15143;DHT22;7672;50.834;6.286;2023-06-26T13:54:13;31.70;67.70
15143;DHT22;7672;50.834;6.286;2023-06-26T13:56:40;31.60;68.40
15143;DHT22;7672;50.834;6.286;2023-06-26T13:59:07;31.60;68.10
15143;DHT22;7672;50.834;6.286;2023-06-26T14:01:34;31.50;68.10
15143;DHT22;7672;50.834;6.286;2023-06-26T14:04:01;31.50;69.50
15143;DHT22;7672;50.834;6.286;2023-06-26T14:06:28;31.50;68.40
15143;DHT22;7672;50.834;6.286;2023-06-26T14:08:57;31.40;67.70
15143;DHT22;7672;50.834;6.286;2023-06-26T14:11:24;31.40;68.20
15143;DHT22;7672;50.834;6.286;2023-06-26T14:13:52;31.30;67.10
15143;DHT22;7672;50.834;6.286;2023-06-26T14:16:19;31.20;68.50
15143;DHT22;7672;50.834;6.286;2023-06-26T14:18:47;31.00;67.60
15143;DHT22;7672;50.834;6.286;2023-06-26T14:21:14;31.00;67.80
15143;DHT22;7672;50.834;6.286;2023-06-26T14:23:43;31.00;67.60
15143;DHT22;7672;50.834;6.286;2023-06-26T14:26:11;30.90;67.70
15143;DHT22;7672;50.834;6.286;2023-06-26T14:28:38;30.80;68.60
15143;DHT22;7672;50.834;6.286;2023-06-26T14:31:05;30.70;69.10
15143;DHT22;7672;50.834;6.286;2023-06-26T14:33:33;30.70;68.90
15143;DHT22;7672;50.834;6.286;2023-06-26T14:36:00;30.60;68.60
15143;DHT22;7672;50.834;6.286;2023-06-26T14:38:27;30.60;68.70
15143;DHT22;7672;50.834;6.286;2023-06-26T14:40:54;30.60;68.80
15143;DHT22;7672;50.834;6.286;2023-06-26T14:43:22;30.60;69.60
15143;DHT22;7672;50.834;6.286;2023-06-26T14:45:50;30.50;69.10
15143;DHT22;7672;50.834;6.286;2023-06-26T14:48:17;30.50;68.50
15143;DHT22;7672;50.834;6.286;2023-06-26T14:50:46;30.50;68.40
15143;DHT22;7672;50.834;6.286;2023-06-26T14:53:13;30.50;68.00
15143;DHT22;7672;50.834;6.286;2023-06-26T14:55:40;30.40;67.90
15143;DHT22;7672;50.834;6.286;2023-06-26T14:58:07;30.40;70.20
15143;DHT22;7672;50.834;6.286;2023-06-26T15:00:34;30.30;68.90
15143;DHT22;7672;50.834;6.286;2023-06-26T15:03:02;30.30;68.40
15143;DHT22;7672;50.834;6.286;2023-06-26T15:05:29;30.30;68.30
15143;DHT22;7672;50.834;6.286;2023-06-26T15:07:57;30.30;68.70
15143;DHT22;7672;50.834;6.286;2023-06-26T15:10:27;30.20;68.60
15143;DHT22;7672;50.834;6.286;2023-06-26T15:12:57;30.20;68.30
15143;DHT22;7672;50.834;6.286;2023-06-26T15:15:24;30.20;68.90
15143;DHT22;7672;50.834;6.286;2023-06-26T15:17:54;30.10;69.80
15143;DHT22;7672;50.834;6.286;2023-06-26T15:20:21;30.10;69.40
15143;DHT22;7672;50.834;6.286;2023-06-26T15:22:48;30.10;68.90
15143;DHT22;7672;50.834;6.286;2023-06-26T15:25:16;30.10;68.80
15143;DHT22;7672;50.834;6.286;2023-06-26T15:27:43;30.10;68.80
15143;DHT22;7672;50.834;6.286;2023-06-26T15:30:10;30.10;69.20
15143;DHT22;7672;50.834;6.286;2023-06-26T15:32:38;30.00;69.00
15143;DHT22;7672;50.834;6.286;2023-06-26T15:35:06;30.00;69.00
15143;DHT22;7672;50.834;6.286;2023-06-26T15:37:33;29.90;70.30
15143;DHT22;7672;50.834;6.286;2023-06-26T15:40:00;29.90;70.10
15143;DHT22;7672;50.834;6.286;2023-06-26T15:42:29;29.90;70.40
15143;DHT22;7672;50.834;6.286;2023-06-26T15:44:56;29.90;70.10
15143;DHT22;7672;50.834;6.286;2023-06-26T15:47:23;29.90;69.60
15143;DHT22;7672;50.834;6.286;2023-06-26T15:49:55;29.80;69.20
15143;DHT22;7672;50.834;6.286;2023-06-26T15:52:22;29.80;68.50
15143;DHT22;7672;50.834;6.286;2023-06-26T15:54:49;29.80;70.20
15143;DHT22;7672;50.834;6.286;2023-06-26T15:57:16;29.70;69.20
15143;DHT22;7672;50.834;6.286;2023-06-26T15:59:43;29.60;69.30
15143;DHT22;7672;50.834;6.286;2023-06-26T16:02:10;29.50;70.10
15143;DHT22;7672;50.834;6.286;2023-06-26T16:04:38;29.50;70.30
15143;DHT22;7672;50.834;6.286;2023-06-26T16:07:05;29.40;72.00
15143;DHT22;7672;50.834;6.286;2023-06-26T16:09:33;29.40;72.20
15143;DHT22;7672;50.834;6.286;2023-06-26T16:12:00;29.30;72.10
15143;DHT22;7672;50.834;6.286;2023-06-26T16:14:27;29.20;72.10
15143;DHT22;7672;50.834;6.286;2023-06-26T16:16:54;29.10;71.90
15143;DHT22;7672;50.834;6.286;2023-06-26T16:19:21;29.10;71.50